Terminal Aerodrome Forecast
Issued by NWS

Home | Current Version | Previous Version | Text Only | Print | Product List | Glossary Off
Versions: 1 2 3 4 5 6 7 8 9 10 11 12 13 14 15 16 17

986
FTUS45 KGGW 040528
TAFSDY
TAF
KSDY 040528Z 0406/0506 30005KT P6SM BKN150
     FM041200 VRB03KT P6SM SCT250
     FM041800 19007KT P6SM BKN250
     FM042200 21005KT P6SM VCSH SCT050 BKN090
     FM050200 VRB03KT 3SM -SN SCT015 OVC030
      AMD LTD TO CLD VIS AND WIND=

USA.gov is the U.S. government's official web portal to all federal, state and local government web resources and services.